Portada
METAR-TAF:

METAR-TAF

Aeropuertos :

Oita, Japón

latitud: 33-29N, longitud: 131-44E, altitud: 5 m

Observación

El informe se hizo hace 5 horas y 25 minutos, a las 13:00 UTC
Viento 4 kt del suroeste
Temperatura 22°C
Humedad 73%
Presión 1008 hPa
Visibilidad 10 km o más
Escasas nubes a una altura de 6000 ft
Cielo nuboso

METAR: RJFO 061300Z 23004KT 9999 FEW060 BKN/// 22/17 Q1008

Hora: 03:25 (18:25 UTC)

Pronóstico

El informe se hizo hace 1 hora y 18 minutos, a las 17:07 UTC
Pronóstico válido del 06 a las 18 UTC al 08 a las 00 UTC
Viento 5 kt del norte
Visibilidad 10 km o más
Escasas nubes a una altura de 2000 ft

TAF: RJFO 061707Z 0618/0800 01005KT 9999 FEW020

Observaciones y pronósticos meteorológicos de más de 4000 aeropuertos (mensajes METAR y TAF).

Los puntos amarillos y rojos representan las estaciones disponibles.

Ponga el ratón en el punto deseado para ver el nombre de la estación.

Haga clic para ver las observaciones y los pronósticos meteorológicos.

Para cambiar el mapa : haga clic en los botones verdes con una cruz de color negro para hacer un zoom, en el botón verde con un guión para alejar o en las flechas verdes para mapas adyacentes.


METAR-TAF: